Time;durP1;ratioP1;P1;durP2;ratioP2;P2;SDS_P1;SDS_P2;PMS_P1;PMS_P2;Temp;Humidity;BMP_temperature;BMP_pressure;BME280_temperature;BME280_humidity;BME280_pressure;Samples;Min_cycle;Max_cycle;Signal;HPM_P1;HPM_P2
2021/05/23 00:01:34;;;;;;;2.13;1.70;;;11.70;99.90;;;;;;5114741;28;20169;-75
2021/05/23 00:04:00;;;;;;;3.03;1.50;;;11.70;99.90;;;;;;5114789;28;20165;-76
2021/05/23 00:06:25;;;;;;;2.80;1.87;;;11.50;99.90;;;;;;5114579;28;20230;-75
2021/05/23 00:08:51;;;;;;;1.80;1.50;;;11.50;99.90;;;;;;5114412;28;20663;-75
2021/05/23 00:11:16;;;;;;;3.90;1.90;;;11.50;99.90;;;;;;5114331;28;20222;-75
2021/05/23 00:13:47;;;;;;;1.80;1.70;;;11.40;99.90;;;;;;5114335;28;20168;-75
2021/05/23 00:16:22;;;;;;;1.50;1.40;;;11.40;99.90;;;;;;5114001;28;20157;-76
2021/05/23 00:18:51;;;;;;;2.00;1.80;;;11.40;99.90;;;;;;5114261;28;20450;-75
2021/05/23 00:21:19;;;;;;;1.87;1.50;;;11.30;99.90;;;;;;5114052;27;20411;-75
2021/05/23 00:23:44;;;;;;;2.57;1.97;;;11.20;99.90;;;;;;5114197;28;20411;-75
2021/05/23 00:26:10;;;;;;;5.27;2.90;;;11.20;99.90;;;;;;5114000;28;20544;-75
2021/05/23 00:28:36;;;;;;;2.60;2.20;;;11.20;99.90;;;;;;5113902;28;20188;-75
2021/05/23 00:31:05;;;;;;;1.80;1.70;;;11.20;99.90;;;;;;5113807;28;21006;-75
2021/05/23 00:33:31;;;;;;;2.97;2.17;;;11.20;99.90;;;;;;5114007;28;20176;-75
2021/05/23 00:35:56;;;;;;;2.67;2.00;;;11.10;99.90;;;;;;5113906;28;20399;-76
2021/05/23 00:38:22;;;;;;;2.10;1.90;;;11.10;99.90;;;;;;5113730;28;20176;-76
2021/05/23 00:40:48;;;;;;;2.40;2.20;;;11.10;99.90;;;;;;5113894;27;20577;-77
2021/05/23 00:43:16;;;;;;;2.97;1.93;;;11.10;99.90;;;;;;5113751;28;20510;-76
2021/05/23 00:45:42;;;;;;;3.40;2.43;;;11.10;99.90;;;;;;5113933;28;20173;-76
2021/05/23 00:48:08;;;;;;;5.13;2.67;;;11.00;99.90;;;;;;5113345;28;20426;-76
2021/05/23 00:50:35;;;;;;;2.37;2.17;;;11.00;99.90;;;;;;5113752;28;20503;-76
2021/05/23 00:53:01;;;;;;;5.43;3.20;;;11.00;99.90;;;;;;5113616;28;20390;-76
2021/05/23 00:55:27;;;;;;;2.67;2.57;;;10.90;99.90;;;;;;5113755;28;20394;-76
2021/05/23 00:57:53;;;;;;;2.10;1.90;;;10.90;99.90;;;;;;5113127;28;20422;-76
2021/05/23 01:00:54;;;;;;;2.80;2.57;;;10.90;99.90;;;;;;5113637;27;20648;-76
2021/05/23 01:03:56;;;;;;;3.60;2.93;;;10.80;99.90;;;;;;5113269;28;20507;-76
2021/05/23 01:06:22;;;;;;;3.20;2.47;;;10.70;99.90;;;;;;5074271;28;20503;-75
2021/05/23 01:08:48;;;;;;;3.67;3.17;;;10.70;99.90;;;;;;5072849;28;21146;-76
2021/05/23 01:11:17;;;;;;;4.53;3.03;;;10.80;99.90;;;;;;5072476;28;20452;-76
2021/05/23 01:13:57;;;;;;;3.13;2.93;;;10.80;99.90;;;;;;5072729;28;20750;-76
2021/05/23 01:16:32;;;;;;;2.50;2.30;;;10.80;99.90;;;;;;5087915;28;20420;-75
2021/05/23 01:19:03;;;;;;;3.60;3.30;;;10.70;99.90;;;;;;5072927;28;20439;-75
2021/05/23 01:21:32;;;;;;;2.53;2.33;;;10.80;99.90;;;;;;5072969;28;20410;-75
2021/05/23 01:24:03;;;;;;;3.30;2.63;;;10.70;99.90;;;;;;5072622;28;20532;-76
2021/05/23 01:26:35;;;;;;;4.37;3.23;;;10.70;99.90;;;;;;5072281;28;20418;-76
2021/05/23 01:29:06;;;;;;;2.67;2.47;;;10.70;99.90;;;;;;5072199;28;20576;-76
2021/05/23 01:31:32;;;;;;;3.20;3.00;;;10.60;99.90;;;;;;5072072;28;20545;-76
2021/05/23 01:33:59;;;;;;;3.50;3.20;;;10.60;99.90;;;;;;5072438;28;20422;-75
2021/05/23 01:36:30;;;;;;;3.30;3.10;;;10.50;99.90;;;;;;5070013;28;20550;-76
2021/05/23 01:38:56;;;;;;;3.00;2.80;;;10.50;99.90;;;;;;5071876;28;20467;-76
2021/05/23 01:41:22;;;;;;;4.03;2.90;;;10.50;99.90;;;;;;5083591;28;20444;-76
2021/05/23 01:43:48;;;;;;;3.00;2.80;;;10.50;99.90;;;;;;5091006;28;20423;-76
2021/05/23 01:46:15;;;;;;;5.73;3.13;;;10.50;99.90;;;;;;5091973;28;20408;-76
2021/05/23 01:48:40;;;;;;;4.20;3.30;;;10.40;99.90;;;;;;5092177;28;20428;-76
2021/05/23 01:51:07;;;;;;;3.07;2.73;;;10.40;99.90;;;;;;5092049;28;20976;-75
2021/05/23 01:53:33;;;;;;;3.00;2.70;;;10.50;99.90;;;;;;5092271;28;20570;-76
2021/05/23 01:55:59;;;;;;;3.80;3.30;;;10.50;99.90;;;;;;5092072;28;20416;-75
2021/05/23 01:58:24;;;;;;;2.97;2.77;;;10.50;99.90;;;;;;5091633;28;20450;-76
2021/05/23 02:00:51;;;;;;;3.40;3.10;;;10.50;99.90;;;;;;5091979;28;20207;-76
2021/05/23 02:03:20;;;;;;;3.87;3.57;;;10.50;99.90;;;;;;5091631;28;20914;-76
2021/05/23 02:05:48;;;;;;;3.83;3.53;;;10.50;99.90;;;;;;5092194;28;20490;-76
2021/05/23 02:08:15;;;;;;;4.47;3.20;;;10.40;99.90;;;;;;5091684;28;20427;-76
2021/05/23 02:10:42;;;;;;;3.20;3.00;;;10.30;99.90;;;;;;5091535;28;20523;-76
2021/05/23 02:13:08;;;;;;;3.60;3.30;;;10.40;99.90;;;;;;5091682;28;20410;-77
2021/05/23 02:15:34;;;;;;;3.57;3.27;;;10.40;99.90;;;;;;5091462;28;20815;-75
2021/05/23 02:18:00;;;;;;;3.80;3.50;;;10.40;99.90;;;;;;5091125;28;20789;-77
2021/05/23 02:20:29;;;;;;;3.90;3.50;;;10.40;99.90;;;;;;5091727;28;20412;-76
2021/05/23 02:22:57;;;;;;;3.50;3.20;;;10.30;99.90;;;;;;5091537;28;20170;-76
2021/05/23 02:25:23;;;;;;;3.43;3.20;;;10.30;99.90;;;;;;5091518;28;20407;-76
2021/05/23 02:27:52;;;;;;;3.90;3.47;;;10.30;99.90;;;;;;5091752;28;20870;-76
2021/05/23 02:30:27;;;;;;;4.13;3.83;;;10.20;99.90;;;;;;5091735;28;20456;-76
2021/05/23 02:32:52;;;;;;;3.20;3.00;;;10.10;99.90;;;;;;5091690;28;20478;-76
2021/05/23 02:35:20;;;;;;;3.53;3.23;;;10.20;99.90;;;;;;5090166;28;20495;-77
2021/05/23 02:37:45;;;;;;;2.97;2.77;;;10.10;99.90;;;;;;5089955;28;20170;-77
2021/05/23 02:40:14;;;;;;;3.10;2.90;;;10.10;99.90;;;;;;5091200;28;20439;-76
2021/05/23 02:42:41;;;;;;;2.70;2.50;;;10.00;99.90;;;;;;5089841;28;20173;-76
2021/05/23 02:45:09;;;;;;;4.33;2.90;;;10.00;99.90;;;;;;5091239;28;20416;-76
2021/05/23 02:47:35;;;;;;;3.87;3.57;;;10.00;99.90;;;;;;5090916;28;20445;-76
2021/05/23 02:50:03;;;;;;;2.80;2.60;;;9.90;99.90;;;;;;5091259;28;20935;-77
2021/05/23 02:52:28;;;;;;;3.20;2.90;;;9.90;99.90;;;;;;5091172;28;20405;-76
2021/05/23 02:54:53;;;;;;;3.23;2.93;;;9.80;99.90;;;;;;5091127;28;20418;-76
2021/05/23 02:57:19;;;;;;;3.07;2.87;;;9.90;99.90;;;;;;5090914;28;20260;-77
2021/05/23 02:59:44;;;;;;;5.30;3.33;;;9.90;99.90;;;;;;5091146;28;20514;-76
2021/05/23 03:02:11;;;;;;;3.37;3.10;;;9.80;99.90;;;;;;5090915;28;20179;-77
2021/05/23 03:04:36;;;;;;;3.20;3.00;;;9.80;99.90;;;;;;5091234;28;20691;-77
2021/05/23 03:07:02;;;;;;;4.00;2.93;;;9.80;99.90;;;;;;5090900;28;20439;-76
2021/05/23 03:09:27;;;;;;;3.60;2.73;;;9.80;99.90;;;;;;5090821;28;20304;-75
2021/05/23 03:11:53;;;;;;;3.50;2.67;;;9.70;99.90;;;;;;5090901;28;20163;-75
2021/05/23 03:14:19;;;;;;;3.70;3.40;;;9.70;99.90;;;;;;5091031;28;20681;-75
2021/05/23 03:16:45;;;;;;;3.17;2.87;;;9.70;99.90;;;;;;5090662;28;20476;-75
2021/05/23 03:19:11;;;;;;;3.40;3.10;;;9.70;99.90;;;;;;5090829;28;20186;-75
2021/05/23 03:21:37;;;;;;;3.20;2.90;;;9.70;99.90;;;;;;5090883;28;20412;-76
2021/05/23 03:24:04;;;;;;;3.57;3.33;;;9.80;99.90;;;;;;5090881;28;20404;-76
2021/05/23 03:26:30;;;;;;;2.80;2.60;;;9.90;99.90;;;;;;5090577;28;20415;-75
2021/05/23 03:28:55;;;;;;;5.20;3.27;;;9.90;99.90;;;;;;5093030;28;20438;-76
2021/05/23 03:31:21;;;;;;;3.17;2.97;;;9.90;99.90;;;;;;5094562;28;20451;-76
2021/05/23 03:33:46;;;;;;;2.57;2.37;;;10.00;99.90;;;;;;5094830;28;20162;-75
2021/05/23 03:36:12;;;;;;;3.00;2.80;;;10.10;99.90;;;;;;5094859;28;20725;-75
2021/05/23 03:38:37;;;;;;;3.37;2.70;;;10.10;99.90;;;;;;5094627;28;20181;-76
2021/05/23 03:41:03;;;;;;;3.40;3.10;;;10.20;99.90;;;;;;5094599;28;20249;-76
2021/05/23 03:43:28;;;;;;;2.40;2.20;;;10.20;99.90;;;;;;5094615;28;20663;-76
2021/05/23 03:45:54;;;;;;;3.03;2.27;;;10.20;99.90;;;;;;5094829;28;20161;-75
2021/05/23 03:48:20;;;;;;;3.17;2.87;;;10.30;99.90;;;;;;5094212;28;20632;-76
2021/05/23 03:50:45;;;;;;;3.20;2.20;;;10.30;99.90;;;;;;5094504;28;20205;-76
2021/05/23 03:53:11;;;;;;;2.60;2.40;;;10.30;99.90;;;;;;5094302;28;20169;-76
2021/05/23 03:55:36;;;;;;;4.83;2.93;;;10.30;99.90;;;;;;5094295;28;20193;-75
2021/05/23 03:58:03;;;;;;;3.50;3.20;;;10.30;99.90;;;;;;5094005;28;20189;-75
2021/05/23 04:00:29;;;;;;;2.17;2.07;;;10.30;99.90;;;;;;5094429;28;20165;-75
2021/05/23 04:02:56;;;;;;;3.00;2.80;;;10.30;99.90;;;;;;5094243;28;20402;-75
2021/05/23 04:05:28;;;;;;;3.17;2.23;;;10.30;99.90;;;;;;5094506;28;20501;-75
2021/05/23 04:07:55;;;;;;;2.50;2.30;;;10.30;99.90;;;;;;5093935;28;20413;-75
2021/05/23 04:10:25;;;;;;;3.07;2.43;;;10.40;99.90;;;;;;5093996;28;21034;-75
2021/05/23 04:12:51;;;;;;;2.17;2.00;;;10.50;99.90;;;;;;5094015;28;20400;-76
2021/05/23 04:15:20;;;;;;;2.50;2.30;;;10.50;99.90;;;;;;5092787;28;20996;-75
2021/05/23 04:17:47;;;;;;;2.83;2.63;;;10.60;99.90;;;;;;5093619;28;20878;-76
2021/05/23 04:20:14;;;;;;;2.50;2.30;;;10.60;99.90;;;;;;5093923;28;20510;-75
2021/05/23 04:22:40;;;;;;;2.40;2.20;;;10.60;99.90;;;;;;5094053;28;20408;-75
2021/05/23 04:25:09;;;;;;;2.27;2.07;;;10.70;99.90;;;;;;5093635;28;20415;-75
2021/05/23 04:27:36;;;;;;;2.03;1.80;;;10.70;99.90;;;;;;5093436;28;20400;-75
2021/05/23 04:30:03;;;;;;;2.00;1.90;;;10.90;99.90;;;;;;5093491;28;20566;-75
2021/05/23 04:32:28;;;;;;;1.90;1.80;;;11.00;99.90;;;;;;5093373;28;20506;-75
2021/05/23 04:34:54;;;;;;;2.20;2.00;;;11.20;99.90;;;;;;5093615;28;20427;-75
2021/05/23 04:37:19;;;;;;;2.20;2.00;;;11.10;99.90;;;;;;5093302;28;20162;-76
2021/05/23 04:39:44;;;;;;;2.23;1.90;;;11.10;99.90;;;;;;5092909;28;20272;-76
2021/05/23 04:42:10;;;;;;;2.00;1.70;;;11.20;99.90;;;;;;5093420;28;20277;-76
2021/05/23 04:44:35;;;;;;;2.30;1.90;;;11.20;99.90;;;;;;5093455;28;20235;-76
2021/05/23 04:47:01;;;;;;;2.63;2.40;;;11.30;99.90;;;;;;5093270;28;20226;-76
2021/05/23 04:49:26;;;;;;;2.67;2.23;;;11.30;99.90;;;;;;5093121;28;20213;-76
2021/05/23 04:51:52;;;;;;;1.97;1.83;;;11.40;99.90;;;;;;5093145;28;20544;-76
2021/05/23 04:54:17;;;;;;;2.13;1.93;;;11.50;99.90;;;;;;5093312;28;20185;-76
2021/05/23 04:56:43;;;;;;;2.90;1.80;;;11.60;99.90;;;;;;5093265;28;20631;-76
2021/05/23 04:59:08;;;;;;;2.20;2.00;;;11.70;99.90;;;;;;5092970;28;20697;-76
2021/05/23 05:01:34;;;;;;;2.13;1.50;;;11.90;99.90;;;;;;5093191;28;20497;-76
2021/05/23 05:03:59;;;;;;;3.13;1.70;;;11.90;99.90;;;;;;5093212;28;20182;-76
2021/05/23 05:06:25;;;;;;;1.77;1.67;;;11.80;99.90;;;;;;5092857;28;20181;-76
2021/05/23 05:08:51;;;;;;;2.40;1.67;;;11.70;99.90;;;;;;5092789;28;20634;-76
2021/05/23 05:11:16;;;;;;;1.97;1.77;;;11.90;99.90;;;;;;5092906;28;20205;-76
2021/05/23 05:13:42;;;;;;;4.80;1.80;;;11.80;99.90;;;;;;5092750;28;20177;-76
2021/05/23 05:16:08;;;;;;;1.87;1.73;;;11.90;99.90;;;;;;5092838;28;20170;-76
2021/05/23 05:18:35;;;;;;;2.13;1.70;;;11.80;99.90;;;;;;5092435;28;20626;-76
2021/05/23 05:21:02;;;;;;;2.20;1.67;;;11.70;99.90;;;;;;5092682;28;20400;-76
2021/05/23 05:23:27;;;;;;;1.90;1.80;;;11.60;99.90;;;;;;5092546;28;20453;-77
2021/05/23 05:25:53;;;;;;;2.43;1.80;;;11.60;99.90;;;;;;5091408;28;20420;-75
2021/05/23 05:28:18;;;;;;;2.57;1.80;;;11.50;99.90;;;;;;5092321;28;20352;-76
2021/05/23 05:30:44;;;;;;;2.10;2.00;;;11.50;99.90;;;;;;5092751;28;20198;-76
2021/05/23 05:33:09;;;;;;;3.47;2.07;;;11.80;99.90;;;;;;5092294;28;20166;-75
2021/05/23 05:35:35;;;;;;;2.57;1.87;;;12.00;99.90;;;;;;5092412;28;20569;-76
2021/05/23 05:38:00;;;;;;;1.63;1.53;;;12.00;99.90;;;;;;5091918;28;20166;-77
2021/05/23 05:40:26;;;;;;;1.77;1.67;;;12.00;99.90;;;;;;5092387;28;20177;-76
2021/05/23 05:42:51;;;;;;;1.90;1.80;;;12.00;99.90;;;;;;5092324;28;20681;-75
2021/05/23 05:45:17;;;;;;;5.73;1.70;;;12.00;99.90;;;;;;5092334;28;20173;-76
2021/05/23 05:47:42;;;;;;;2.80;1.70;;;11.80;99.90;;;;;;5091844;28;20212;-75
2021/05/23 05:50:09;;;;;;;1.50;1.40;;;11.80;99.90;;;;;;5091949;28;20540;-76
2021/05/23 05:52:34;;;;;;;2.70;1.53;;;12.10;99.90;;;;;;5091363;28;20169;-77
2021/05/23 05:55:00;;;;;;;3.60;2.20;;;12.20;99.90;;;;;;5092183;28;20886;-76
2021/05/23 05:57:25;;;;;;;3.27;1.67;;;11.90;99.90;;;;;;5091905;28;20177;-76
2021/05/23 05:59:51;;;;;;;1.40;1.30;;;11.90;99.90;;;;;;5092182;28;20193;-76
2021/05/23 06:02:16;;;;;;;1.60;1.27;;;11.90;99.90;;;;;;5091878;28;20169;-77
2021/05/23 06:04:42;;;;;;;2.07;1.60;;;11.90;99.90;;;;;;5092097;28;20174;-75
2021/05/23 06:07:08;;;;;;;2.03;1.63;;;11.80;99.90;;;;;;5090332;28;20197;-76
2021/05/23 06:09:33;;;;;;;1.60;1.50;;;11.90;99.90;;;;;;5091910;28;20427;-77
2021/05/23 06:11:59;;;;;;;2.00;1.60;;;11.90;99.90;;;;;;5091845;28;20166;-76
2021/05/23 06:14:24;;;;;;;4.33;1.80;;;11.80;99.90;;;;;;5091923;28;20621;-77
2021/05/23 06:16:50;;;;;;;1.93;1.83;;;11.80;99.90;;;;;;5091347;28;20169;-76
2021/05/23 06:19:15;;;;;;;1.53;1.40;;;11.80;99.90;;;;;;5091825;28;20231;-76
2021/05/23 06:21:41;;;;;;;2.40;1.70;;;11.90;99.90;;;;;;5091561;28;20169;-77
2021/05/23 06:24:07;;;;;;;2.30;1.63;;;11.80;99.90;;;;;;5091821;28;20207;-75
2021/05/23 06:26:33;;;;;;;1.40;1.30;;;11.70;99.90;;;;;;5091460;28;20185;-76
2021/05/23 06:28:58;;;;;;;1.30;1.20;;;11.70;99.90;;;;;;5091596;28;20416;-77
2021/05/23 06:31:24;;;;;;;2.40;1.60;;;11.60;99.90;;;;;;5091245;28;20209;-77
2021/05/23 06:33:50;;;;;;;1.83;1.37;;;11.50;99.90;;;;;;5091502;28;20170;-77
2021/05/23 06:36:15;;;;;;;1.70;1.60;;;11.40;99.90;;;;;;5091173;28;20562;-77
2021/05/23 06:38:41;;;;;;;1.90;1.70;;;11.40;99.90;;;;;;5091387;28;20428;-77
2021/05/23 06:41:06;;;;;;;1.40;1.30;;;11.40;99.90;;;;;;5091362;28;20166;-76
2021/05/23 06:43:32;;;;;;;4.07;1.73;;;11.30;99.90;;;;;;5091537;28;20169;-76
2021/05/23 06:45:57;;;;;;;1.70;1.60;;;11.30;99.90;;;;;;5091253;28;20185;-76
2021/05/23 06:48:23;;;;;;;1.80;1.57;;;11.10;99.90;;;;;;5091074;28;20196;-77
2021/05/23 06:50:50;;;;;;;2.97;1.60;;;11.20;99.90;;;;;;5089691;28;20652;-77
2021/05/23 06:53:15;;;;;;;4.23;1.80;;;11.00;99.90;;;;;;5091225;28;20612;-77
2021/05/23 06:55:41;;;;;;;1.93;1.83;;;10.90;99.90;;;;;;5091630;28;20435;-76
2021/05/23 06:58:06;;;;;;;2.10;1.60;;;10.90;99.90;;;;;;5089722;28;20555;-76
2021/05/23 07:00:32;;;;;;;6.07;2.00;;;10.90;99.90;;;;;;5091386;28;20181;-77
2021/05/23 07:02:57;;;;;;;2.40;1.80;;;10.90;99.90;;;;;;5094700;28;20177;-77
2021/05/23 07:05:23;;;;;;;1.80;1.70;;;11.00;99.90;;;;;;5097785;28;20680;-77
2021/05/23 07:07:48;;;;;;;1.50;1.40;;;11.10;99.90;;;;;;5097519;28;20169;-77
2021/05/23 07:10:15;;;;;;;4.17;2.03;;;11.30;99.90;;;;;;5097769;28;20228;-79
2021/05/23 07:12:40;;;;;;;2.10;2.00;;;11.40;99.90;;;;;;5098006;28;20232;-78
2021/05/23 07:15:08;;;;;;;4.33;1.97;;;11.50;99.90;;;;;;5097618;28;20440;-78
2021/05/23 07:17:34;;;;;;;2.10;1.90;;;11.60;99.90;;;;;;5097535;28;20244;-78
2021/05/23 07:19:59;;;;;;;5.30;1.67;;;12.00;99.90;;;;;;5097483;28;20506;-78
2021/05/23 07:22:25;;;;;;;2.63;1.67;;;12.10;99.90;;;;;;5097903;28;20648;-75
2021/05/23 07:24:50;;;;;;;2.70;1.73;;;12.40;99.90;;;;;;5098037;28;20177;-76
2021/05/23 07:27:16;;;;;;;1.43;1.33;;;12.50;99.90;;;;;;5097495;28;20238;-75
2021/05/23 07:29:42;;;;;;;2.13;1.50;;;12.90;99.90;;;;;;5097568;28;20288;-76
2021/05/23 07:32:07;;;;;;;1.70;1.23;;;13.30;99.90;;;;;;5097504;28;20411;-75
2021/05/23 07:34:33;;;;;;;5.83;1.50;;;13.10;99.90;;;;;;5097495;28;20237;-77
2021/05/23 07:36:58;;;;;;;2.30;1.47;;;13.40;99.90;;;;;;5096195;28;20477;-75
2021/05/23 07:39:24;;;;;;;2.10;1.40;;;13.80;99.90;;;;;;5096638;28;20200;-76
2021/05/23 07:41:49;;;;;;;2.50;1.83;;;13.90;99.90;;;;;;5096278;28;20177;-75
2021/05/23 07:44:17;;;;;;;2.60;1.87;;;13.50;99.90;;;;;;5097661;28;20545;-75
2021/05/23 07:46:43;;;;;;;3.20;1.50;;;13.60;99.90;;;;;;5097208;28;20203;-75
2021/05/23 07:49:08;;;;;;;8.10;1.37;;;13.40;99.90;;;;;;5097341;28;20427;-76
2021/05/23 07:51:33;;;;;;;1.87;1.30;;;13.70;99.90;;;;;;5097235;28;20425;-76
2021/05/23 07:53:59;;;;;;;3.10;1.30;;;13.80;99.90;;;;;;5097510;28;20166;-75
2021/05/23 07:56:24;;;;;;;1.60;1.30;;;13.90;99.90;;;;;;5097236;28;20212;-76
2021/05/23 07:58:50;;;;;;;2.93;1.70;;;14.70;99.90;;;;;;5097246;28;20222;-76
2021/05/23 08:01:15;;;;;;;2.63;1.20;;;14.40;99.90;;;;;;5097383;28;20186;-77
2021/05/23 08:03:41;;;;;;;1.60;1.30;;;14.30;99.90;;;;;;5097181;28;20198;-76
2021/05/23 08:06:08;;;;;;;1.67;1.00;;;14.30;99.90;;;;;;5097372;28;20173;-76
2021/05/23 08:08:35;;;;;;;3.03;1.27;;;14.30;99.90;;;;;;5097109;28;20178;-77
2021/05/23 08:11:01;;;;;;;2.37;1.70;;;14.50;99.90;;;;;;5097098;28;20443;-75
2021/05/23 08:13:26;;;;;;;1.87;1.30;;;14.10;99.90;;;;;;5096031;28;20929;-75
2021/05/23 08:15:51;;;;;;;1.63;1.30;;;14.10;99.90;;;;;;5093732;28;20412;-73
2021/05/23 08:18:22;;;;;;;1.47;1.00;;;14.70;99.90;;;;;;5093568;28;20183;-75
2021/05/23 08:20:49;;;;;;;2.00;1.13;;;14.50;99.90;;;;;;5094089;28;20165;-75
2021/05/23 08:23:14;;;;;;;1.30;1.10;;;14.40;99.90;;;;;;5092670;28;20436;-76
2021/05/23 08:25:40;;;;;;;2.20;1.20;;;14.70;99.90;;;;;;5093783;28;20937;-75
2021/05/23 08:28:05;;;;;;;1.93;1.23;;;15.00;99.90;;;;;;5093485;28;20222;-76
2021/05/23 08:30:31;;;;;;;3.50;1.40;;;14.90;99.90;;;;;;5089842;28;20202;-75
2021/05/23 08:32:56;;;;;;;2.50;1.50;;;15.10;99.90;;;;;;5080089;28;20220;-76
2021/05/23 08:35:22;;;;;;;4.03;1.60;;;15.80;99.90;;;;;;5093633;28;20187;-75
2021/05/23 08:37:47;;;;;;;1.67;1.20;;;16.20;99.90;;;;;;5078917;28;20636;-75
2021/05/23 08:40:13;;;;;;;1.50;1.30;;;16.10;99.90;;;;;;5073201;28;20197;-76
2021/05/23 08:42:39;;;;;;;1.50;1.37;;;15.90;99.90;;;;;;5073139;28;20580;-76
2021/05/23 08:45:06;;;;;;;3.10;1.87;;;15.40;99.90;;;;;;5073285;28;20176;-75
2021/05/23 08:47:39;;;;;;;2.10;1.23;;;15.50;99.90;;;;;;5072778;28;20177;-75
2021/05/23 08:50:05;;;;;;;2.20;1.27;;;15.90;99.90;;;;;;5095543;28;20462;-76
2021/05/23 08:52:31;;;;;;;2.60;1.30;;;15.60;99.90;;;;;;5111491;28;20412;-74
2021/05/23 08:54:58;;;;;;;2.03;1.10;;;15.00;99.90;;;;;;5113471;28;20413;-75
2021/05/23 08:57:23;;;;;;;1.13;1.03;;;15.50;99.90;;;;;;5113119;28;20290;-74
2021/05/23 08:59:49;;;;;;;1.90;1.20;;;14.50;99.90;;;;;;5113377;28;20473;-77
2021/05/23 09:02:15;;;;;;;3.63;2.30;;;15.20;99.90;;;;;;5113192;28;20170;-76
2021/05/23 09:04:52;;;;;;;2.13;1.30;;;16.00;99.90;;;;;;5113396;28;20402;-76
2021/05/23 09:07:18;;;;;;;2.60;1.93;;;16.70;99.90;;;;;;5113275;28;20271;-77
2021/05/23 09:09:46;;;;;;;1.80;1.50;;;16.10;99.90;;;;;;5113349;28;20425;-75
2021/05/23 09:12:13;;;;;;;2.03;1.23;;;15.30;99.90;;;;;;5113116;28;20601;-76
2021/05/23 09:14:43;;;;;;;1.83;1.50;;;15.30;99.90;;;;;;5113082;28;20407;-75
2021/05/23 09:17:20;;;;;;;2.97;1.70;;;15.20;99.90;;;;;;5113123;28;20593;-75
2021/05/23 09:19:47;;;;;;;2.60;1.80;;;15.20;99.90;;;;;;5113145;28;20510;-76
2021/05/23 09:22:17;;;;;;;3.10;2.20;;;15.30;99.90;;;;;;5113002;28;20415;-75
2021/05/23 09:24:50;;;;;;;1.30;1.20;;;16.10;99.90;;;;;;5112998;28;20915;-75
2021/05/23 09:27:16;;;;;;;2.43;2.00;;;15.60;99.90;;;;;;5095536;28;20409;-75
2021/05/23 09:29:42;;;;;;;1.77;1.23;;;15.50;99.90;;;;;;5112146;28;20442;-77
2021/05/23 09:32:16;;;;;;;1.97;1.27;;;15.30;99.90;;;;;;5112582;28;20361;-75
2021/05/23 09:34:41;;;;;;;2.00;1.40;;;15.70;99.90;;;;;;5113195;28;20164;-75
2021/05/23 09:37:14;;;;;;;1.70;1.30;;;15.50;99.90;;;;;;5112796;28;20771;-75
2021/05/23 09:39:41;;;;;;;1.70;1.50;;;15.80;99.90;;;;;;5112773;28;20276;-75
2021/05/23 09:42:11;;;;;;;1.90;1.70;;;15.80;99.90;;;;;;5112643;27;20406;-76
2021/05/23 09:44:38;;;;;;;2.30;1.67;;;16.10;99.90;;;;;;5112878;28;20420;-75
2021/05/23 09:47:09;;;;;;;2.53;1.40;;;16.60;99.90;;;;;;5112291;28;20433;-75
2021/05/23 09:49:41;;;;;;;1.60;1.20;;;16.80;99.90;;;;;;5112701;28;20411;-75
2021/05/23 09:52:11;;;;;;;1.60;1.20;;;16.70;99.90;;;;;;5112401;28;20407;-75
2021/05/23 09:54:52;;;;;;;1.10;0.97;;;17.00;99.90;;;;;;5112401;28;20830;-77
2021/05/23 09:57:23;;;;;;;2.00;1.70;;;17.00;99.90;;;;;;5112302;28;20433;-75
2021/05/23 09:59:59;;;;;;;1.13;1.03;;;16.70;99.90;;;;;;5111066;28;20431;-75
2021/05/23 10:02:25;;;;;;;0.80;0.70;;;16.60;99.90;;;;;;5112150;28;20390;-75
2021/05/23 10:04:50;;;;;;;1.30;1.00;;;16.50;99.90;;;;;;5112371;28;20417;-75
2021/05/23 10:07:16;;;;;;;1.17;0.90;;;16.50;99.90;;;;;;5112043;28;20211;-75
2021/05/23 10:09:41;;;;;;;1.10;1.00;;;16.80;99.90;;;;;;5111903;28;20184;-75
2021/05/23 10:12:10;;;;;;;0.80;0.73;;;16.40;99.90;;;;;;5111982;28;20159;-75
2021/05/23 10:14:37;;;;;;;1.23;0.93;;;16.70;99.90;;;;;;5112060;28;20163;-75
2021/05/23 10:17:06;;;;;;;0.80;0.80;;;17.40;99.90;;;;;;5111605;28;20401;-74
2021/05/23 10:19:33;;;;;;;0.73;0.73;;;17.60;99.90;;;;;;5112025;28;20519;-75
2021/05/23 10:22:01;;;;;;;0.90;0.80;;;17.30;99.90;;;;;;5111714;27;20421;-74
2021/05/23 10:24:41;;;;;;;1.47;1.00;;;17.90;99.90;;;;;;5111775;28;20827;-74
2021/05/23 10:27:10;;;;;;;1.27;0.90;;;17.70;99.90;;;;;;5111763;28;20458;-76
2021/05/23 10:29:39;;;;;;;0.80;0.80;;;17.80;99.90;;;;;;5111574;28;20519;-77
2021/05/23 10:32:14;;;;;;;1.67;1.00;;;17.70;99.90;;;;;;5111528;28;20437;-76
2021/05/23 10:34:42;;;;;;;1.40;0.90;;;18.00;99.90;;;;;;5111704;28;21122;-76
2021/05/23 10:37:10;;;;;;;1.07;0.90;;;17.60;99.90;;;;;;5111089;28;20398;-76
2021/05/23 10:39:37;;;;;;;1.00;0.80;;;17.90;99.90;;;;;;5112101;28;20501;-76
2021/05/23 10:42:04;;;;;;;0.93;0.90;;;18.20;99.90;;;;;;5111608;28;20926;-76
2021/05/23 10:44:51;;;;;;;0.87;0.87;;;17.70;99.90;;;;;;5111602;28;20406;-77
2021/05/23 10:47:42;;;;;;;0.87;0.83;;;17.90;99.90;;;;;;5111218;28;20422;-76
2021/05/23 10:50:09;;;;;;;0.70;0.70;;;18.00;99.90;;;;;;5087727;28;20624;-75
2021/05/23 10:52:37;;;;;;;1.20;1.10;;;18.20;99.90;;;;;;5111354;28;20399;-76
2021/05/23 10:55:04;;;;;;;1.47;1.37;;;17.60;99.90;;;;;;5111590;28;20406;-76
2021/05/23 10:57:43;;;;;;;3.50;1.30;;;16.40;99.90;;;;;;5111373;28;20511;-75
2021/05/23 11:00:13;;;;;;;1.60;1.50;;;16.80;99.90;;;;;;5111249;28;20425;-75
2021/05/23 11:02:41;;;;;;;1.50;1.40;;;17.50;99.90;;;;;;5111210;28;20395;-75
2021/05/23 11:05:15;;;;;;;1.40;1.30;;;18.10;99.90;;;;;;5111309;28;20897;-76
2021/05/23 11:07:52;;;;;;;1.60;1.50;;;17.90;99.90;;;;;;5111120;28;20932;-76
2021/05/23 11:10:20;;;;;;;1.20;1.10;;;16.90;99.90;;;;;;5111627;28;20453;-75
2021/05/23 11:13:00;;;;;;;1.37;1.27;;;17.10;99.90;;;;;;5111170;28;20751;-75
2021/05/23 11:15:37;;;;;;;3.70;1.93;;;16.40;99.90;;;;;;5111101;28;20437;-75
2021/05/23 11:18:03;;;;;;;1.90;1.80;;;16.90;99.90;;;;;;5110922;28;20509;-76
2021/05/23 11:20:28;;;;;;;1.70;1.60;;;16.80;99.90;;;;;;5111371;28;20432;-76
2021/05/23 11:22:57;;;;;;;1.87;1.50;;;17.10;99.90;;;;;;5110970;28;20177;-75
2021/05/23 11:25:23;;;;;;;1.67;1.40;;;16.40;99.90;;;;;;5109940;28;20190;-77
2021/05/23 11:28:06;;;;;;;1.73;1.57;;;16.80;99.90;;;;;;5111327;28;20409;-75
2021/05/23 11:30:35;;;;;;;3.00;1.40;;;16.80;99.90;;;;;;5104096;28;20220;-75
2021/05/23 11:33:06;;;;;;;1.80;1.70;;;16.50;99.90;;;;;;5081267;28;20415;-76
2021/05/23 11:35:34;;;;;;;2.13;1.40;;;16.30;99.90;;;;;;5070489;28;20845;-76
2021/05/23 11:38:00;;;;;;;1.57;1.47;;;16.80;99.90;;;;;;5084828;28;20413;-75
2021/05/23 11:40:37;;;;;;;1.70;1.60;;;16.60;99.90;;;;;;5090483;28;21042;-76
2021/05/23 11:43:10;;;;;;;2.00;1.37;;;16.90;99.90;;;;;;5090481;28;20580;-75
2021/05/23 11:45:36;;;;;;;1.90;1.80;;;17.10;99.90;;;;;;5090634;28;20507;-75
2021/05/23 11:48:07;;;;;;;1.57;1.47;;;16.60;99.90;;;;;;5090070;28;20919;-76
2021/05/23 11:50:33;;;;;;;1.40;1.30;;;17.00;99.90;;;;;;5093650;28;20505;-76
2021/05/23 11:52:59;;;;;;;2.43;1.53;;;16.80;99.90;;;;;;5107871;28;20407;-76
2021/05/23 11:55:27;;;;;;;1.97;1.50;;;16.70;99.90;;;;;;5114760;28;20400;-75
2021/05/23 11:58:06;;;;;;;1.17;1.07;;;16.30;99.90;;;;;;5114196;28;20435;-75
2021/05/23 12:00:32;;;;;;;1.37;1.27;;;16.70;99.90;;;;;;5113182;28;20971;-75
2021/05/23 12:02:59;;;;;;;1.00;1.00;;;16.10;99.90;;;;;;5114466;28;20403;-75
2021/05/23 12:05:42;;;;;;;1.40;1.30;;;16.30;99.90;;;;;;5114395;28;20193;-76
2021/05/23 12:08:36;;;;;;;1.20;1.10;;;16.60;99.90;;;;;;5114252;28;20407;-75
2021/05/23 12:11:03;;;;;;;1.73;0.97;;;16.70;99.90;;;;;;5100916;28;20467;-75
2021/05/23 12:13:41;;;;;;;1.20;1.10;;;16.60;99.90;;;;;;5114209;28;20395;-76
2021/05/23 12:16:09;;;;;;;2.07;1.43;;;16.70;99.90;;;;;;5114453;28;20383;-76
2021/05/23 12:18:37;;;;;;;1.53;1.43;;;16.90;99.90;;;;;;5113782;28;20558;-75
2021/05/23 12:21:03;;;;;;;1.50;1.40;;;16.80;99.90;;;;;;5114119;28;20436;-75
2021/05/23 12:23:28;;;;;;;1.40;1.30;;;17.00;99.90;;;;;;5112792;28;20472;-75
2021/05/23 12:25:54;;;;;;;1.30;1.20;;;17.00;99.90;;;;;;5114192;28;20447;-76
2021/05/23 12:28:19;;;;;;;1.20;1.10;;;17.30;99.90;;;;;;5113838;28;20190;-75
2021/05/23 12:30:45;;;;;;;1.10;1.00;;;17.00;99.90;;;;;;5114147;28;20230;-76
2021/05/23 12:33:10;;;;;;;1.10;1.00;;;17.10;99.90;;;;;;5114113;28;20158;-75
2021/05/23 12:35:41;;;;;;;1.20;1.00;;;16.60;99.90;;;;;;5113948;28;20165;-75
2021/05/23 12:38:12;;;;;;;1.33;1.23;;;16.90;99.90;;;;;;5112787;28;20534;-75
2021/05/23 12:40:50;;;;;;;1.30;1.20;;;17.20;99.90;;;;;;5112583;28;20409;-75
2021/05/23 12:43:17;;;;;;;4.63;1.20;;;17.40;99.90;;;;;;5113979;28;20447;-75
2021/05/23 12:45:54;;;;;;;0.80;0.73;;;17.20;99.90;;;;;;5113738;28;20895;-75
2021/05/23 12:48:33;;;;;;;1.20;1.10;;;17.10;99.90;;;;;;5113296;28;20438;-75
2021/05/23 12:51:00;;;;;;;1.10;1.00;;;17.50;99.90;;;;;;5113745;28;20486;-73